Time;durP1;ratioP1;P1;durP2;ratioP2;P2;SDS_P1;SDS_P2;PMS_P1;PMS_P2;Temp;Humidity;BMP_temperature;BMP_pressure;BME280_temperature;BME280_humidity;BME280_pressure;Samples;Min_cycle;Max_cycle;Signal;HPM_P1;HPM_P2
2022/03/03 00:01:38;;;;;;;23.17;10.80;;;2.10;94.80;;;;;;5033472;28;20048;-79
2022/03/03 00:04:04;;;;;;;19.10;9.52;;;2.20;94.70;;;;;;5029522;28;20034;-79
2022/03/03 00:06:30;;;;;;;19.50;9.70;;;2.20;94.60;;;;;;5030709;28;20029;-79
2022/03/03 00:08:56;;;;;;;19.50;9.30;;;2.20;94.40;;;;;;5026322;28;20025;-80
2022/03/03 00:11:21;;;;;;;19.63;9.90;;;2.20;94.50;;;;;;5033920;28;20447;-80
2022/03/03 00:13:47;;;;;;;18.85;9.50;;;2.20;94.60;;;;;;5029004;28;20029;-79
2022/03/03 00:16:13;;;;;;;20.63;10.70;;;2.20;94.80;;;;;;5031507;28;20029;-79
2022/03/03 00:18:38;;;;;;;20.30;10.48;;;2.10;94.80;;;;;;5033205;28;20037;-79
2022/03/03 00:21:04;;;;;;;21.50;10.48;;;2.10;95.00;;;;;;5033309;28;20476;-80
2022/03/03 00:23:30;;;;;;;22.15;10.07;;;2.10;95.10;;;;;;5033231;28;20087;-79
2022/03/03 00:25:56;;;;;;;20.15;9.98;;;2.10;95.10;;;;;;5030674;28;20035;-78
2022/03/03 00:28:21;;;;;;;21.45;9.95;;;2.10;95.20;;;;;;5033205;28;20104;-79
2022/03/03 00:30:47;;;;;;;17.88;9.57;;;2.00;95.20;;;;;;5032426;28;20025;-79
2022/03/03 00:33:13;;;;;;;18.90;9.98;;;2.00;95.40;;;;;;5033284;28;20025;-79
2022/03/03 00:35:38;;;;;;;19.48;10.70;;;1.90;95.50;;;;;;5030164;28;20469;-80
2022/03/03 00:38:04;;;;;;;22.98;11.20;;;1.90;95.80;;;;;;5031932;28;20030;-79
2022/03/03 00:40:30;;;;;;;17.70;9.68;;;1.90;96.00;;;;;;5033013;28;20076;-79
2022/03/03 00:42:55;;;;;;;20.08;10.63;;;1.90;96.20;;;;;;5032230;28;20483;-80
2022/03/03 00:45:22;;;;;;;21.73;11.48;;;1.90;96.30;;;;;;5032356;28;20115;-79
2022/03/03 00:47:48;;;;;;;20.23;9.80;;;1.90;96.20;;;;;;5031988;28;20079;-79
2022/03/03 00:50:14;;;;;;;19.23;10.32;;;1.90;96.30;;;;;;5027389;28;20425;-80
2022/03/03 00:52:40;;;;;;;21.52;10.73;;;1.90;96.50;;;;;;5032699;28;20040;-79
2022/03/03 00:55:06;;;;;;;19.30;10.35;;;1.90;96.90;;;;;;5029902;28;20033;-80
2022/03/03 00:57:32;;;;;;;20.88;11.20;;;1.90;96.80;;;;;;5033295;28;20049;-79
2022/03/03 00:59:57;;;;;;;17.70;9.88;;;1.90;96.90;;;;;;5031995;28;20485;-80
2022/03/03 01:02:23;;;;;;;18.60;10.43;;;1.80;96.90;;;;;;5030085;28;20123;-80
2022/03/03 01:04:48;;;;;;;21.60;11.15;;;1.80;97.00;;;;;;5030809;28;20063;-80
2022/03/03 01:07:14;;;;;;;22.08;11.05;;;1.70;97.10;;;;;;5031589;28;20045;-80
2022/03/03 01:09:39;;;;;;;23.10;11.60;;;1.70;97.30;;;;;;5031846;28;20111;-80
2022/03/03 01:12:05;;;;;;;26.92;11.73;;;1.60;97.30;;;;;;5032273;28;20044;-79
2022/03/03 01:14:31;;;;;;;24.00;10.13;;;1.60;97.60;;;;;;5029458;28;20032;-80
2022/03/03 01:16:57;;;;;;;21.00;10.80;;;1.50;97.80;;;;;;5030671;28;20034;-80
2022/03/03 01:19:22;;;;;;;25.35;12.43;;;1.40;98.00;;;;;;5022824;28;20025;-80
2022/03/03 01:21:48;;;;;;;22.02;11.70;;;1.30;98.10;;;;;;5024175;28;20034;-81
2022/03/03 01:24:13;;;;;;;18.98;10.10;;;1.30;98.30;;;;;;5031869;28;20030;-80
2022/03/03 01:26:39;;;;;;;20.08;10.68;;;1.20;98.60;;;;;;5031736;28;20532;-80
2022/03/03 01:29:04;;;;;;;23.10;11.00;;;1.20;98.70;;;;;;5031748;28;20030;-80
2022/03/03 01:31:30;;;;;;;20.83;10.32;;;1.20;98.90;;;;;;5030161;28;20057;-80
2022/03/03 01:33:58;;;;;;;23.88;11.82;;;1.10;99.00;;;;;;5031144;28;20037;-78
2022/03/03 01:36:24;;;;;;;22.38;12.00;;;1.10;99.20;;;;;;5019945;28;20044;-78
2022/03/03 01:38:50;;;;;;;19.70;10.95;;;1.00;99.60;;;;;;5016820;28;20104;-80
2022/03/03 01:41:15;;;;;;;23.73;11.77;;;1.00;99.70;;;;;;5026029;28;20552;-80
2022/03/03 01:43:41;;;;;;;22.10;11.43;;;1.10;99.90;;;;;;5028527;28;20037;-79
2022/03/03 01:46:07;;;;;;;24.45;11.70;;;1.10;99.90;;;;;;5031292;28;20026;-81
2022/03/03 01:48:33;;;;;;;24.45;11.70;;;1.20;99.90;;;;;;5031036;28;20029;-80
2022/03/03 01:50:58;;;;;;;24.15;12.52;;;1.20;99.90;;;;;;5027508;28;20021;-81
2022/03/03 01:53:24;;;;;;;24.42;11.93;;;1.20;99.90;;;;;;5031466;28;20371;-80
2022/03/03 01:55:50;;;;;;;22.13;11.40;;;1.30;99.90;;;;;;5030187;28;20029;-80
2022/03/03 01:58:16;;;;;;;25.25;12.52;;;1.30;99.90;;;;;;5030603;28;20028;-81
2022/03/03 02:00:44;;;;;;;23.85;12.55;;;1.30;99.90;;;;;;5025495;28;20017;-81
2022/03/03 02:03:10;;;;;;;24.45;13.05;;;1.30;99.90;;;;;;5017623;28;20044;-81
2022/03/03 02:05:36;;;;;;;23.13;12.07;;;1.30;99.90;;;;;;5030962;28;20044;-81
2022/03/03 02:08:01;;;;;;;27.73;13.10;;;1.20;99.90;;;;;;5031297;28;20041;-81
2022/03/03 02:10:27;;;;;;;24.13;12.88;;;1.20;99.90;;;;;;5028709;28;20029;-80
2022/03/03 02:12:53;;;;;;;20.17;12.05;;;1.10;99.90;;;;;;5029323;28;20034;-80
2022/03/03 02:15:20;;;;;;;23.38;12.10;;;1.10;99.90;;;;;;5031126;28;20026;-80
2022/03/03 02:17:46;;;;;;;26.10;12.55;;;1.10;99.90;;;;;;5030554;28;20037;-80
2022/03/03 02:20:29;;;;;;;23.75;12.80;;;1.00;99.90;;;;;;5030224;28;20519;-80
2022/03/03 02:22:55;;;;;;;;;;;1.00;99.90;;;;;;5031048;28;20041;-80
2022/03/03 02:25:21;;;;;;;24.48;12.40;;;0.90;99.90;;;;;;5030278;28;19940;-78
2022/03/03 02:27:47;;;;;;;25.33;12.80;;;0.80;99.90;;;;;;5019807;28;20088;-78
2022/03/03 02:30:14;;;;;;;23.70;12.50;;;0.70;99.90;;;;;;5030123;28;20036;-81
2022/03/03 02:32:41;;;;;;;23.98;11.48;;;0.70;99.90;;;;;;5030422;28;20474;-81
2022/03/03 02:35:07;;;;;;;23.15;12.45;;;0.70;99.90;;;;;;5028068;28;20042;-80
2022/03/03 02:37:42;;;;;;;24.45;12.00;;;0.70;99.90;;;;;;5029050;28;20100;-81
2022/03/03 02:40:13;;;;;;;23.77;11.93;;;0.60;99.90;;;;;;5023779;28;20033;-80
2022/03/03 02:42:39;;;;;;;25.40;13.07;;;0.60;99.90;;;;;;5027884;28;20036;-80
2022/03/03 02:45:06;;;;;;;23.55;12.90;;;0.70;99.90;;;;;;5028399;28;20033;-79
2022/03/03 02:47:31;;;;;;;26.85;13.32;;;0.70;99.90;;;;;;5029740;28;20124;-81
2022/03/03 02:49:57;;;;;;;25.13;12.68;;;0.60;99.90;;;;;;5027276;28;20117;-81
2022/03/03 02:52:23;;;;;;;24.20;12.23;;;0.60;99.90;;;;;;5028543;28;20052;-80
2022/03/03 02:54:49;;;;;;;24.20;12.07;;;0.60;99.90;;;;;;5025944;28;20025;-81
2022/03/03 02:59:59;;;;;;;26.98;14.18;;;0.60;99.90;;;;;;5023067;28;20032;-80
2022/03/03 03:02:25;;;;;;;25.23;13.73;;;0.60;99.90;;;;;;5030275;28;20038;-80
2022/03/03 03:04:50;;;;;;;27.63;13.70;;;0.60;99.90;;;;;;5028591;28;20076;-81
2022/03/03 03:07:16;;;;;;;24.95;13.95;;;0.60;99.90;;;;;;5030320;28;20037;-81
2022/03/03 03:09:41;;;;;;;26.58;12.80;;;0.60;99.90;;;;;;5030707;28;20056;-81
2022/03/03 03:12:08;;;;;;;24.77;13.73;;;0.60;99.90;;;;;;5030207;28;20026;-81
2022/03/03 03:14:34;;;;;;;30.63;13.50;;;0.50;99.90;;;;;;5030613;28;20033;-81
2022/03/03 03:16:59;;;;;;;23.33;11.82;;;0.50;99.90;;;;;;5030197;28;20123;-80
2022/03/03 03:19:25;;;;;;;25.27;13.38;;;0.40;99.90;;;;;;5027484;28;20030;-80
2022/03/03 03:21:50;;;;;;;27.02;12.95;;;0.40;99.90;;;;;;5027611;28;20057;-80
2022/03/03 03:24:16;;;;;;;26.25;14.25;;;0.30;99.90;;;;;;5025742;28;20038;-80
2022/03/03 03:26:41;;;;;;;27.05;13.35;;;0.20;99.90;;;;;;5029533;28;20076;-81
2022/03/03 03:29:07;;;;;;;27.42;13.50;;;0.20;99.90;;;;;;5030326;28;20440;-78
2022/03/03 03:31:32;;;;;;;27.25;13.15;;;0.10;99.90;;;;;;5030801;28;20029;-80
2022/03/03 03:33:58;;;;;;;24.05;12.93;;;0.10;99.90;;;;;;5033584;28;20037;-81
2022/03/03 03:36:24;;;;;;;24.80;12.70;;;0.10;99.90;;;;;;5032643;28;20080;-81
2022/03/03 03:38:49;;;;;;;28.50;13.35;;;0.10;99.90;;;;;;5033858;28;20404;-81
2022/03/03 03:41:15;;;;;;;26.98;13.70;;;0.10;99.90;;;;;;5035020;28;20367;-82
2022/03/03 03:43:40;;;;;;;28.73;13.95;;;0.10;99.90;;;;;;5033850;28;20034;-81
2022/03/03 03:46:06;;;;;;;26.63;13.98;;;0.10;99.90;;;;;;5034055;28;20363;-80
2022/03/03 03:48:31;;;;;;;29.20;13.63;;;0.00;99.90;;;;;;5032939;28;20048;-81
2022/03/03 03:50:57;;;;;;;28.17;14.60;;;0.00;99.90;;;;;;5031092;28;20036;-81
2022/03/03 03:53:23;;;;;;;30.33;13.13;;;0.00;99.90;;;;;;5033787;28;20516;-81
2022/03/03 03:55:50;;;;;;;29.58;14.02;;;-0.10;99.90;;;;;;5033695;28;20025;-82
2022/03/03 03:58:15;;;;;;;23.02;11.70;;;-0.10;99.90;;;;;;5033668;28;20559;-78
2022/03/03 04:00:41;;;;;;;28.00;13.10;;;-0.20;99.90;;;;;;5032518;28;20033;-81
2022/03/03 04:03:07;;;;;;;27.63;13.32;;;-0.20;99.90;;;;;;5025878;28;20041;-81
2022/03/03 04:05:32;;;;;;;29.88;14.15;;;-0.20;99.90;;;;;;5026374;28;20029;-81
2022/03/03 04:07:58;;;;;;;28.40;13.65;;;-0.20;99.90;;;;;;5032739;28;20430;-81
2022/03/03 04:10:24;;;;;;;29.65;14.65;;;-0.20;99.90;;;;;;5028960;28;20037;-81
2022/03/03 04:12:49;;;;;;;28.73;14.70;;;-0.30;99.90;;;;;;5025184;28;20036;-81
2022/03/03 04:15:15;;;;;;;22.75;12.45;;;-0.30;99.90;;;;;;5032704;28;20037;-81
2022/03/03 04:17:41;;;;;;;25.42;13.10;;;-0.40;99.90;;;;;;5032698;28;20393;-80
2022/03/03 04:20:07;;;;;;;28.98;14.63;;;-0.40;99.90;;;;;;5026426;28;20057;-81
2022/03/03 04:22:34;;;;;;;29.60;14.68;;;-0.40;99.90;;;;;;5031554;28;20132;-81
2022/03/03 04:24:59;;;;;;;25.98;13.82;;;-0.30;99.90;;;;;;5032672;28;20076;-81
2022/03/03 04:27:25;;;;;;;29.50;13.88;;;-0.30;99.90;;;;;;5031986;28;20033;-80
2022/03/03 04:29:50;;;;;;;28.50;13.50;;;-0.30;99.90;;;;;;5032517;28;20482;-81
2022/03/03 04:32:16;;;;;;;29.58;14.00;;;-0.30;99.90;;;;;;5033944;28;20064;-81
2022/03/03 04:34:42;;;;;;;28.85;13.18;;;-0.30;99.90;;;;;;5027522;28;20029;-80
2022/03/03 04:37:08;;;;;;;26.10;13.02;;;-0.20;99.90;;;;;;5030897;28;20056;-81
2022/03/03 04:39:33;;;;;;;25.65;12.98;;;-0.30;99.90;;;;;;5032878;28;20108;-80
2022/03/03 04:41:59;;;;;;;27.02;13.85;;;-0.30;99.90;;;;;;5031205;28;20038;-81
2022/03/03 04:44:24;;;;;;;26.23;13.65;;;-0.20;99.90;;;;;;5031156;28;20021;-81
2022/03/03 04:46:50;;;;;;;25.75;13.15;;;-0.20;99.90;;;;;;5026964;28;20040;-80
2022/03/03 04:49:15;;;;;;;23.85;12.07;;;-0.20;99.90;;;;;;5031268;28;20446;-80
2022/03/03 04:51:41;;;;;;;26.63;13.35;;;-0.20;99.90;;;;;;5026543;28;20470;-81
2022/03/03 04:54:09;;;;;;;26.35;13.18;;;-0.20;99.90;;;;;;5030376;28;20143;-81
2022/03/03 04:56:36;;;;;;;25.17;13.48;;;-0.20;99.90;;;;;;5031669;28;20034;-81
2022/03/03 04:59:01;;;;;;;28.52;13.70;;;-0.20;99.90;;;;;;5031981;28;20033;-80
2022/03/03 05:01:27;;;;;;;24.23;12.63;;;-0.20;99.90;;;;;;5016581;28;20030;-81
2022/03/03 05:03:53;;;;;;;22.50;11.30;;;-0.20;99.90;;;;;;5025681;28;20029;-80
2022/03/03 05:06:18;;;;;;;23.77;12.93;;;-0.20;99.90;;;;;;5031158;28;20026;-80
2022/03/03 05:08:44;;;;;;;24.90;13.13;;;-0.20;99.90;;;;;;5031794;28;20504;-80
2022/03/03 05:11:10;;;;;;;25.10;13.13;;;-0.30;99.90;;;;;;5031529;28;20025;-80
2022/03/03 05:13:36;;;;;;;24.77;12.60;;;-0.30;99.90;;;;;;5016102;28;20096;-80
2022/03/03 05:16:03;;;;;;;27.55;13.45;;;-0.40;99.90;;;;;;5032636;28;20034;-80
2022/03/03 05:18:29;;;;;;;27.80;13.70;;;-0.50;99.90;;;;;;5029063;28;20037;-80
2022/03/03 05:20:55;;;;;;;25.25;12.90;;;-0.60;99.90;;;;;;5029699;28;20223;-80
2022/03/03 05:23:21;;;;;;;28.13;14.05;;;-0.70;99.90;;;;;;5019401;28;20033;-80
2022/03/03 05:25:47;;;;;;;30.20;13.82;;;-0.80;99.90;;;;;;5031257;28;20048;-80
2022/03/03 05:28:12;;;;;;;26.77;12.48;;;-0.80;99.90;;;;;;5031836;28;20068;-80
2022/03/03 05:30:38;;;;;;;23.85;12.98;;;-0.80;99.90;;;;;;5028244;28;20459;-80
2022/03/03 05:33:04;;;;;;;31.67;14.70;;;-0.90;99.90;;;;;;5031869;28;20038;-80
2022/03/03 05:35:29;;;;;;;29.83;14.02;;;-1.00;99.90;;;;;;5022647;28;20017;-79
2022/03/03 05:37:55;;;;;;;30.48;14.55;;;-1.00;99.90;;;;;;5029200;28;20124;-80
2022/03/03 05:40:21;;;;;;;28.45;13.70;;;-1.00;99.90;;;;;;5024276;28;20028;-78
2022/03/03 05:42:46;;;;;;;31.13;13.65;;;-1.10;99.90;;;;;;5030638;28;20092;-80
2022/03/03 05:45:12;;;;;;;23.08;12.45;;;-1.10;99.90;;;;;;5030863;28;20021;-81
2022/03/03 05:47:38;;;;;;;28.92;13.40;;;-1.20;99.90;;;;;;5020721;28;20540;-80
2022/03/03 05:50:05;;;;;;;28.48;13.95;;;-1.10;99.90;;;;;;5024763;28;20040;-80
2022/03/03 05:52:31;;;;;;;27.30;13.73;;;-1.10;99.90;;;;;;5031063;28;20060;-80
2022/03/03 05:54:57;;;;;;;32.65;14.80;;;-1.10;99.90;;;;;;5028629;28;20061;-80
2022/03/03 05:57:34;;;;;;;25.65;14.13;;;-1.00;99.90;;;;;;5017964;28;20052;-80
2022/03/03 06:00:12;;;;;;;30.10;14.30;;;-0.90;99.90;;;;;;5027354;28;20026;-80
2022/03/03 06:02:42;;;;;;;26.60;13.27;;;-0.80;99.90;;;;;;5031592;28;20065;-80
2022/03/03 06:05:08;;;;;;;25.75;13.25;;;-0.80;99.90;;;;;;5022817;28;20030;-80
2022/03/03 06:07:41;;;;;;;27.05;14.32;;;-0.80;99.90;;;;;;5026648;28;20520;-79
2022/03/03 06:10:08;;;;;;;29.33;14.27;;;-0.70;99.90;;;;;;5018184;28;20101;-80
2022/03/03 06:12:47;;;;;;;28.23;14.15;;;-0.70;99.90;;;;;;5017281;28;20042;-80
2022/03/03 06:15:13;;;;;;;30.00;14.68;;;-0.70;99.90;;;;;;5025360;28;20018;-80
2022/03/03 06:17:43;;;;;;;28.38;13.82;;;-0.80;99.90;;;;;;5029392;28;20354;-76
2022/03/03 06:20:10;;;;;;;26.25;13.88;;;-0.80;99.90;;;;;;5029403;28;20037;-77
2022/03/03 06:22:35;;;;;;;30.35;14.43;;;-0.80;99.90;;;;;;5030869;28;20042;-78
2022/03/03 06:25:05;;;;;;;27.58;15.23;;;-0.70;99.90;;;;;;5029254;28;20069;-77
2022/03/03 06:27:32;;;;;;;29.08;14.75;;;-0.70;99.90;;;;;;5031990;28;20099;-78
2022/03/03 06:29:58;;;;;;;30.88;13.73;;;-0.80;99.90;;;;;;5028165;28;20051;-79
2022/03/03 06:32:23;;;;;;;30.85;14.70;;;-0.80;99.90;;;;;;5022612;28;20363;-78
2022/03/03 06:34:49;;;;;;;29.08;14.15;;;-0.90;99.90;;;;;;5022765;28;20116;-79
2022/03/03 06:37:15;;;;;;;30.67;15.90;;;-0.90;99.90;;;;;;5030459;28;20030;-79
2022/03/03 06:39:40;;;;;;;30.85;15.02;;;-0.90;99.90;;;;;;5024586;28;20060;-78
2022/03/03 06:42:07;;;;;;;28.42;14.02;;;-1.00;99.90;;;;;;5029520;28;20091;-78
2022/03/03 06:44:33;;;;;;;34.22;14.60;;;-0.90;99.90;;;;;;5026708;28;20029;-79
2022/03/03 06:47:02;;;;;;;27.05;13.85;;;-1.00;99.90;;;;;;5026424;28;20508;-80
2022/03/03 06:49:27;;;;;;;27.77;14.05;;;-1.00;99.90;;;;;;5023187;28;20030;-81
2022/03/03 06:51:56;;;;;;;30.27;14.98;;;-1.00;99.90;;;;;;5027995;28;20040;-80
2022/03/03 06:54:23;;;;;;;31.55;15.68;;;-1.10;99.90;;;;;;5029574;28;20044;-80
2022/03/03 06:56:50;;;;;;;28.92;14.75;;;-1.10;99.90;;;;;;5024593;28;20037;-81
2022/03/03 06:59:17;;;;;;;29.02;14.50;;;-1.10;99.90;;;;;;5025990;28;20163;-79
2022/03/03 07:01:44;;;;;;;32.33;14.85;;;-1.10;99.90;;;;;;5015606;28;20029;-80
2022/03/03 07:04:13;;;;;;;28.98;14.82;;;-1.10;99.90;;;;;;5019915;28;20033;-80
2022/03/03 07:06:39;;;;;;;29.17;14.63;;;-1.10;99.90;;;;;;5024117;28;20065;-80
2022/03/03 07:09:05;;;;;;;29.45;14.68;;;-1.00;99.90;;;;;;5027184;28;20033;-79
2022/03/03 07:11:31;;;;;;;33.33;15.13;;;-1.00;99.90;;;;;;5035535;28;20037;-79
2022/03/03 07:13:58;;;;;;;30.08;15.00;;;-0.90;99.90;;;;;;5033333;28;20022;-80
2022/03/03 07:17:17;;;;;;;29.88;14.85;;;-0.90;99.90;;;;;;5034896;28;20044;-79
2022/03/03 07:19:52;;;;;;;32.30;14.63;;;-0.80;99.90;;;;;;5011238;28;20417;-80
2022/03/03 07:22:20;;;;;;;26.55;13.98;;;-0.80;99.90;;;;;;5015547;28;20041;-80
2022/03/03 07:24:47;;;;;;;30.27;15.25;;;-0.70;99.90;;;;;;5033318;28;20108;-79
2022/03/03 07:27:24;;;;;;;27.67;14.38;;;-0.50;99.90;;;;;;5029051;28;20036;-80
2022/03/03 07:29:57;;;;;;;28.20;14.35;;;-0.30;99.90;;;;;;5032730;28;20025;-80
2022/03/03 07:32:36;;;;;;;34.92;16.17;;;-0.20;99.90;;;;;;5031667;28;20025;-80
2022/03/03 07:35:29;;;;;;;24.92;13.65;;;0.00;99.90;;;;;;5028383;28;20028;-79
2022/03/03 07:37:58;;;;;;;29.55;14.15;;;0.20;99.90;;;;;;5017153;28;20026;-79
2022/03/03 07:40:30;;;;;;;29.88;14.93;;;0.40;99.90;;;;;;5028955;28;20033;-80
2022/03/03 07:42:57;;;;;;;28.13;13.43;;;0.60;99.90;;;;;;5025560;28;20044;-79
2022/03/03 07:45:23;;;;;;;28.45;14.38;;;0.80;99.90;;;;;;5026732;28;20030;-80
2022/03/03 07:47:50;;;;;;;34.53;14.27;;;1.00;99.90;;;;;;5019010;28;20037;-79
2022/03/03 07:50:16;;;;;;;30.13;17.40;;;1.10;99.90;;;;;;5029679;28;20024;-80
2022/03/03 07:52:43;;;;;;;28.80;13.98;;;1.30;99.90;;;;;;5031911;28;20025;-80
2022/03/03 07:55:09;;;;;;;25.52;13.27;;;1.50;99.90;;;;;;5033588;28;20446;-80
2022/03/03 07:57:39;;;;;;;25.17;13.68;;;1.70;99.90;;;;;;5030531;28;20021;-80
2022/03/03 08:00:08;;;;;;;23.05;13.80;;;1.90;99.90;;;;;;5032037;28;20029;-80
2022/03/03 08:02:34;;;;;;;24.38;13.95;;;2.10;99.90;;;;;;5032621;28;20452;-80
2022/03/03 08:05:02;;;;;;;24.98;14.63;;;2.20;99.90;;;;;;5033377;28;20021;-80
2022/03/03 08:07:28;;;;;;;28.30;14.23;;;2.40;99.90;;;;;;5033626;28;20029;-80
2022/03/03 08:09:59;;;;;;;33.03;16.13;;;2.50;99.90;;;;;;5027790;28;20026;-80
2022/03/03 08:12:25;;;;;;;25.63;14.38;;;2.70;99.90;;;;;;5030981;28;20112;-80
2022/03/03 08:14:52;;;;;;;28.20;15.43;;;2.80;99.90;;;;;;5032275;28;20113;-81
2022/03/03 08:17:18;;;;;;;26.30;16.42;;;3.00;99.90;;;;;;5032612;28;20029;-81
2022/03/03 08:19:44;;;;;;;30.27;17.25;;;3.00;99.90;;;;;;5025138;28;20049;-80
2022/03/03 08:22:13;;;;;;;30.05;15.93;;;3.00;99.90;;;;;;5031488;28;20041;-80
2022/03/03 08:24:43;;;;;;;30.27;16.27;;;3.00;99.90;;;;;;5033301;28;20022;-81
2022/03/03 08:27:12;;;;;;;28.58;15.55;;;3.10;99.90;;;;;;5034060;28;20424;-80
2022/03/03 08:29:38;;;;;;;27.13;16.15;;;3.10;99.90;;;;;;5023939;28;20075;-79
2022/03/03 08:32:10;;;;;;;26.95;14.82;;;3.20;99.90;;;;;;5033054;28;20091;-80
2022/03/03 08:34:50;;;;;;;31.38;16.10;;;3.30;99.90;;;;;;5027777;28;20497;-79
2022/03/03 08:37:37;;;;;;;29.75;14.00;;;3.40;99.90;;;;;;5036102;28;20385;-79
2022/03/03 08:40:08;;;;;;;25.85;14.02;;;3.50;99.90;;;;;;5027070;28;20024;-80
2022/03/03 08:42:40;;;;;;;29.30;15.73;;;3.60;99.90;;;;;;5016576;28;20042;-80
2022/03/03 08:45:09;;;;;;;30.07;16.93;;;3.70;99.90;;;;;;5034017;28;20485;-80
2022/03/03 08:47:35;;;;;;;25.33;14.48;;;3.80;99.90;;;;;;5036091;28;20021;-80
2022/03/03 08:50:09;;;;;;;26.33;13.95;;;3.90;99.90;;;;;;5026277;28;20020;-79
2022/03/03 08:52:38;;;;;;;24.15;14.23;;;4.00;99.90;;;;;;5034851;28;20432;-80
2022/03/03 08:55:05;;;;;;;24.48;14.02;;;4.20;99.90;;;;;;5033710;28;20032;-79
2022/03/03 08:57:30;;;;;;;29.75;15.23;;;4.30;99.90;;;;;;5032601;28;20022;-80
2022/03/03 08:59:56;;;;;;;24.88;14.52;;;4.40;99.90;;;;;;5032180;28;20040;-80
2022/03/03 09:02:22;;;;;;;26.42;16.15;;;4.50;99.90;;;;;;5023191;28;20044;-80
2022/03/03 09:04:47;;;;;;;25.08;15.48;;;4.70;99.90;;;;;;5033480;28;20421;-80
2022/03/03 09:07:14;;;;;;;26.58;14.43;;;4.80;99.90;;;;;;5035559;28;20033;-79
2022/03/03 09:09:40;;;;;;;22.55;13.85;;;4.90;99.90;;;;;;5032962;28;20347;-80
2022/03/03 09:12:06;;;;;;;22.50;12.55;;;5.10;99.90;;;;;;5034511;28;20029;-80
2022/03/03 09:14:32;;;;;;;25.50;15.07;;;5.20;99.90;;;;;;5032890;28;20033;-80
2022/03/03 09:16:57;;;;;;;24.58;13.18;;;5.40;99.90;;;;;;5018774;28;20056;-81
2022/03/03 09:19:23;;;;;;;23.20;13.75;;;5.50;99.90;;;;;;5034845;28;20084;-80
2022/03/03 09:21:48;;;;;;;21.67;11.52;;;5.70;99.90;;;;;;5034933;28;20030;-79
2022/03/03 09:24:15;;;;;;;23.83;12.10;;;5.80;99.60;;;;;;5024393;28;20041;-79
2022/03/03 09:26:40;;;;;;;20.55;11.82;;;6.00;99.30;;;;;;5027702;28;20076;-80
2022/03/03 09:29:06;;;;;;;20.38;11.65;;;6.10;98.40;;;;;;5027591;28;20034;-80
2022/03/03 09:31:32;;;;;;;20.27;12.57;;;6.30;97.00;;;;;;5029012;28;20036;-80
2022/03/03 09:33:57;;;;;;;21.75;13.20;;;6.40;95.40;;;;;;5024394;28;20033;-80
2022/03/03 09:36:24;;;;;;;20.00;12.30;;;6.50;95.00;;;;;;5024489;28;20036;-81
2022/03/03 09:38:49;;;;;;;26.20;12.88;;;6.70;94.50;;;;;;5023783;28;20061;-80
2022/03/03 09:41:15;;;;;;;21.40;12.50;;;6.70;94.00;;;;;;5034837;28;20409;-80
2022/03/03 09:43:42;;;;;;;18.63;11.02;;;6.80;94.30;;;;;;5033192;28;20083;-80
2022/03/03 09:46:09;;;;;;;17.30;9.98;;;6.90;94.00;;;;;;5035104;28;20022;-79
2022/03/03 09:48:35;;;;;;;13.98;8.13;;;7.10;93.60;;;;;;5033936;28;20025;-81
2022/03/03 09:51:00;;;;;;;12.43;7.65;;;7.30;91.90;;;;;;5029049;28;20086;-81
2022/03/03 09:53:26;;;;;;;14.40;8.43;;;7.50;90.40;;;;;;5030901;28;20026;-80
2022/03/03 09:55:51;;;;;;;14.63;9.20;;;7.70;87.10;;;;;;5033150;28;20034;-80
2022/03/03 09:58:17;;;;;;;18.35;9.55;;;7.80;82.90;;;;;;5032976;28;20029;-80
2022/03/03 10:00:43;;;;;;;16.50;9.63;;;7.90;83.10;;;;;;5032122;28;20017;-81
2022/03/03 10:03:13;;;;;;;16.63;9.38;;;7.90;82.80;;;;;;5031648;28;20103;-81
2022/03/03 10:05:47;;;;;;;19.77;10.25;;;8.10;82.90;;;;;;5034024;28;20033;-80
2022/03/03 10:08:18;;;;;;;13.77;8.30;;;8.10;80.70;;;;;;5033177;28;20025;-80
2022/03/03 10:10:46;;;;;;;15.75;8.85;;;8.20;77.50;;;;;;5034528;28;20026;-80
2022/03/03 10:13:17;;;;;;;12.73;8.65;;;8.30;75.50;;;;;;5032137;28;20539;-80
2022/03/03 10:15:53;;;;;;;16.25;8.38;;;8.40;75.80;;;;;;5033897;28;20036;-80
2022/03/03 10:18:19;;;;;;;14.20;8.30;;;8.50;76.20;;;;;;5028389;28;20043;-80
2022/03/03 10:21:02;;;;;;;14.43;8.82;;;8.60;75.20;;;;;;5032797;28;20054;-80
2022/03/03 10:23:34;;;;;;;;;;;8.70;72.90;;;;;;5018644;28;20074;-80
2022/03/03 10:26:06;;;;;;;13.05;8.30;;;8.70;73.30;;;;;;5029775;28;19909;-80
2022/03/03 10:28:34;;;;;;;16.65;10.63;;;8.70;73.60;;;;;;5032250;28;20498;-81
2022/03/03 10:31:08;;;;;;;18.50;11.30;;;8.70;72.60;;;;;;5026777;28;20083;-80
2022/03/03 10:33:36;;;;;;;17.45;11.32;;;8.70;72.90;;;;;;5033545;28;20033;-81
2022/03/03 10:36:08;;;;;;;17.67;11.00;;;8.70;72.10;;;;;;5032619;28;20163;-80
2022/03/03 10:38:46;;;;;;;20.17;12.05;;;8.60;72.60;;;;;;5021448;28;20029;-81
2022/03/03 10:41:26;;;;;;;20.23;11.73;;;8.60;72.80;;;;;;5032390;28;20517;-80
2022/03/03 10:43:51;;;;;;;20.15;11.27;;;8.70;72.30;;;;;;5027547;28;20069;-80
2022/03/03 10:46:17;;;;;;;18.67;11.63;;;8.70;72.70;;;;;;5028004;28;20030;-81
2022/03/03 10:48:42;;;;;;;17.45;12.02;;;8.60;71.20;;;;;;5025166;28;20030;-81
2022/03/03 10:51:11;;;;;;;17.75;11.20;;;8.70;72.90;;;;;;5026246;28;20064;-81
2022/03/03 10:53:36;;;;;;;18.38;10.75;;;8.70;73.10;;;;;;5023411;28;20080;-80
2022/03/03 10:56:06;;;;;;;17.90;11.32;;;8.70;72.50;;;;;;5023090;28;20469;-80
2022/03/03 10:59:00;;;;;;;17.38;11.25;;;8.70;71.50;;;;;;5027122;28;20030;-81
2022/03/03 11:01:27;;;;;;;18.50;10.90;;;8.80;71.60;;;;;;5032694;28;20165;-81
2022/03/03 11:03:54;;;;;;;15.65;10.68;;;8.90;71.70;;;;;;5031082;28;20080;-81
2022/03/03 11:06:29;;;;;;;18.05;10.73;;;8.90;69.90;;;;;;5021029;28;20641;-79
2022/03/03 11:08:57;;;;;;;16.95;10.88;;;9.00;69.20;;;;;;5020449;28;20108;-80
2022/03/03 11:11:24;;;;;;;17.73;11.32;;;9.00;69.00;;;;;;5022490;28;20036;-80
2022/03/03 11:13:51;;;;;;;18.65;11.43;;;9.00;69.00;;;;;;5032838;28;20482;-81
2022/03/03 11:16:18;;;;;;;18.33;11.30;;;9.10;68.80;;;;;;5033752;28;20444;-80
2022/03/03 11:18:45;;;;;;;17.27;9.98;;;9.10;68.40;;;;;;5034103;28;20029;-80
2022/03/03 11:21:12;;;;;;;16.60;9.75;;;9.20;68.30;;;;;;5033229;28;20513;-80
2022/03/03 11:23:44;;;;;;;15.25;9.45;;;9.30;68.00;;;;;;5026181;28;20042;-80
2022/03/03 11:26:24;;;;;;;17.77;10.15;;;9.40;67.90;;;;;;5025839;28;20436;-80
2022/03/03 11:29:13;;;;;;;19.38;10.15;;;9.60;67.50;;;;;;5026321;28;20453;-80
2022/03/03 11:31:40;;;;;;;18.27;10.27;;;9.60;65.90;;;;;;5035238;28;20052;-80
2022/03/03 11:34:21;;;;;;;17.65;10.18;;;9.70;65.50;;;;;;5032617;28;20541;-80
2022/03/03 11:36:47;;;;;;;13.57;9.43;;;9.70;65.20;;;;;;5032782;28;20029;-80
2022/03/03 11:39:40;;;;;;;15.98;10.27;;;9.70;65.30;;;;;;5033330;28;20087;-80
2022/03/03 11:42:37;;;;;;;16.20;9.82;;;9.80;65.60;;;;;;5031033;28;20033;-79
2022/03/03 11:45:11;;;;;;;17.10;9.38;;;9.90;65.50;;;;;;5022527;28;20034;-80
2022/03/03 11:47:41;;;;;;;16.30;10.02;;;10.00;64.50;;;;;;5031132;28;20030;-81
2022/03/03 11:50:25;;;;;;;15.70;10.13;;;10.00;64.10;;;;;;5031850;28;20048;-80
2022/03/03 11:52:57;;;;;;;15.05;9.30;;;10.10;63.80;;;;;;5035468;28;20033;-81
2022/03/03 11:55:37;;;;;;;14.90;10.13;;;10.10;63.50;;;;;;5036728;28;20500;-81
2022/03/03 11:58:04;;;;;;;14.75;8.93;;;10.10;62.40;;;;;;5036641;28;20041;-80
2022/03/03 12:00:33;;;;;;;14.00;8.73;;;10.20;62.20;;;;;;5036789;28;20083;-82
2022/03/03 12:03:13;;;;;;;16.17;9.57;;;10.30;62.30;;;;;;5036829;28;20053;-80
2022/03/03 12:05:44;;;;;;;15.52;9.07;;;10.40;61.70;;;;;;5036467;28;20033;-82
2022/03/03 12:08:16;;;;;;;16.15;10.05;;;10.40;61.90;;;;;;5036450;28;20022;-80
2022/03/03 12:10:58;;;;;;;13.80;9.25;;;10.50;60.00;;;;;;5027347;28;20037;-79
2022/03/03 12:13:27;;;;;;;;;;;10.50;59.20;;;;;;5017368;28;20033;-81
2022/03/03 12:16:18;;;;;;;14.88;9.23;;;10.50;59.90;;;;;;5024573;28;19905;-80
2022/03/03 12:18:49;;;;;;;13.73;9.35;;;10.60;59.00;;;;;;5036028;28;20036;-80
2022/03/03 12:21:34;;;;;;;16.50;10.10;;;10.60;60.20;;;;;;5027310;28;20108;-79
2022/03/03 12:24:27;;;;;;;12.35;8.25;;;10.70;58.00;;;;;;5026678;28;20041;-80
2022/03/03 12:26:56;;;;;;;15.10;8.93;;;10.60;58.80;;;;;;5035693;28;20032;-80
2022/03/03 12:29:43;;;;;;;19.15;9.02;;;10.70;59.40;;;;;;5032531;28;20028;-80
2022/03/03 12:32:36;;;;;;;14.38;8.43;;;10.80;59.50;;;;;;5034484;28;20025;-80
2022/03/03 12:35:29;;;;;;;15.40;9.18;;;10.80;59.40;;;;;;5024265;28;20033;-81
2022/03/03 12:37:57;;;;;;;13.63;8.00;;;10.90;59.00;;;;;;5026918;28;20042;-80
2022/03/03 12:40:25;;;;;;;14.35;9.75;;;10.90;59.20;;;;;;5022445;28;20029;-81
2022/03/03 12:42:51;;;;;;;12.88;8.45;;;11.00;59.60;;;;;;5034269;28;20120;-80
2022/03/03 12:45:19;;;;;;;13.55;9.18;;;11.00;58.20;;;;;;5030871;28;20434;-80